createdAt,value
2022-09-14T00:00:13.338Z,78.69
2022-09-14T00:01:28.895Z,76.67
2022-09-14T00:02:13.471Z,77.07
2022-09-14T00:03:13.413Z,78.12
2022-09-14T00:04:13.341Z,77.21
2022-09-14T00:05:13.282Z,77.31
2022-09-14T00:06:16.754Z,77.51
2022-09-14T00:07:13.279Z,79.03
2022-09-14T00:08:13.261Z,78.83
2022-09-14T00:09:13.232Z,77.11
2022-09-14T00:10:13.234Z,77.92
2022-09-14T00:11:13.208Z,78.02
2022-09-14T00:12:13.218Z,79.44
2022-09-14T00:13:13.180Z,79.03
2022-09-14T00:14:13.207Z,79.94
2022-09-14T00:15:13.158Z,80.19
2022-09-14T00:16:13.196Z,80.29
2022-09-14T00:17:13.304Z,78.77
2022-09-14T00:18:13.130Z,80.79
2022-09-14T00:19:13.124Z,78.87
2022-09-14T00:20:13.114Z,80.15
2022-09-14T00:21:13.121Z,79.54
2022-09-14T00:22:13.096Z,80.86
2022-09-14T00:23:13.104Z,79.74
2022-09-14T00:24:13.071Z,80.65
2022-09-14T00:25:13.055Z,81.26
2022-09-14T00:26:13.034Z,80.96
2022-09-14T00:27:13.028Z,80.45
2022-09-14T00:28:13.015Z,80.15
2022-09-14T00:29:13.029Z,80.35
2022-09-14T00:30:12.997Z,79.64
2022-09-14T00:31:12.997Z,79.54
2022-09-14T00:32:13.056Z,79.24
2022-09-14T00:33:13.008Z,79.13
2022-09-14T00:34:12.959Z,80.15
2022-09-14T00:35:12.957Z,79.64
2022-09-14T00:36:12.955Z,78.53
2022-09-14T00:37:12.912Z,78.42
2022-09-14T00:38:12.924Z,78.02
2022-09-14T00:39:12.886Z,77.82
2022-09-14T00:40:12.915Z,77.92
2022-09-14T00:41:12.972Z,77.82
2022-09-14T00:42:12.919Z,78.83
2022-09-14T00:43:12.916Z,78.89
2022-09-14T00:44:12.854Z,78.39
2022-09-14T00:45:12.862Z,78.59
2022-09-14T00:46:12.858Z,77.88
2022-09-14T00:47:12.823Z,77.98
2022-09-14T00:48:12.820Z,77.88
2022-09-14T00:49:12.800Z,77.37
2022-09-14T00:50:12.787Z,77.58
2022-09-14T00:51:13.471Z,78.59
2022-09-14T00:52:12.759Z,77.68
2022-09-14T00:53:12.752Z,77.07
2022-09-14T00:54:12.745Z,77.58
2022-09-14T00:55:12.735Z,77.68
2022-09-14T00:56:12.745Z,79.00
2022-09-14T00:57:12.808Z,78.69
2022-09-14T00:58:12.684Z,78.28
2022-09-14T00:59:12.677Z,78.59
2022-09-14T01:00:12.665Z,79.10
2022-09-14T01:01:12.759Z,78.08
2022-09-14T01:02:12.716Z,78.19
2022-09-14T01:03:12.647Z,77.88
2022-09-14T01:04:12.641Z,77.48
2022-09-14T01:05:12.637Z,77.98
2022-09-14T01:06:12.618Z,77.78
2022-09-14T01:07:12.649Z,77.48
2022-09-14T01:08:12.657Z,77.58
2022-09-14T01:09:12.574Z,77.37
2022-09-14T01:10:12.549Z,77.48
2022-09-14T01:11:12.549Z,76.56
2022-09-14T01:12:12.556Z,76.97
2022-09-14T01:13:12.570Z,77.07
2022-09-14T01:14:12.525Z,76.16
2022-09-14T01:15:12.558Z,76.36
2022-09-14T01:16:12.564Z,76.36
2022-09-14T01:17:12.499Z,77.37
2022-09-14T01:18:12.470Z,77.17
2022-09-14T01:19:12.464Z,77.07
2022-09-14T01:20:12.482Z,76.97
2022-09-14T01:21:12.463Z,76.56
2022-09-14T01:22:12.435Z,77.37
2022-09-14T01:23:12.447Z,78.08
2022-09-14T01:24:12.428Z,77.07
2022-09-14T01:25:12.439Z,77.58
2022-09-14T01:26:12.422Z,77.78
2022-09-14T01:27:12.401Z,77.68
2022-09-14T01:28:12.362Z,77.58
2022-09-14T01:29:12.409Z,75.96
2022-09-14T01:30:12.373Z,75.65
2022-09-14T01:31:12.376Z,76.16
2022-09-14T01:32:12.332Z,76.97
2022-09-14T01:33:12.352Z,76.67
2022-09-14T01:34:12.319Z,76.97
2022-09-14T01:35:15.842Z,75.85
2022-09-14T01:36:12.287Z,76.77
2022-09-14T01:37:12.270Z,76.87
2022-09-14T01:38:12.328Z,76.46
2022-09-14T01:39:12.370Z,76.67
2022-09-14T01:40:12.273Z,76.36
2022-09-14T01:41:12.240Z,76.77
2022-09-14T01:42:12.223Z,77.68
2022-09-14T01:43:12.251Z,76.77
2022-09-14T01:44:12.182Z,76.06
2022-09-14T01:45:12.222Z,76.46
2022-09-14T01:46:12.294Z,76.67
2022-09-14T01:47:12.199Z,76.36
2022-09-14T01:48:13.104Z,76.56
2022-09-14T01:49:12.230Z,76.97
2022-09-14T01:50:12.146Z,75.85
2022-09-14T01:51:12.137Z,75.85
2022-09-14T01:52:12.100Z,77.28
2022-09-14T01:53:12.136Z,76.56
2022-09-14T01:54:12.076Z,76.56
2022-09-14T01:55:12.083Z,76.67
2022-09-14T01:56:12.140Z,77.48
2022-09-14T01:57:12.089Z,76.16
2022-09-14T01:58:12.035Z,75.76
2022-09-14T01:59:12.040Z,76.36
2022-09-14T02:00:12.032Z,76.56
2022-09-14T02:01:12.105Z,76.46
2022-09-14T02:02:12.076Z,76.67
2022-09-14T02:03:11.991Z,76.16
2022-09-14T02:04:11.985Z,75.96
2022-09-14T02:05:12.021Z,77.58
2022-09-14T02:06:11.939Z,78.59
2022-09-14T02:07:11.945Z,78.49
2022-09-14T02:08:11.943Z,77.88
2022-09-14T02:09:11.919Z,78.49
2022-09-14T02:10:11.952Z,76.60
2022-09-14T02:11:11.911Z,77.31
2022-09-14T02:12:11.904Z,78.83
2022-09-14T02:13:11.892Z,78.73
2022-09-14T02:14:11.871Z,77.72
2022-09-14T02:15:11.883Z,77.82
2022-09-14T02:16:11.933Z,77.92
2022-09-14T02:17:11.884Z,79.13
2022-09-14T02:18:11.890Z,78.53
2022-09-14T02:19:11.851Z,78.33
2022-09-14T02:20:11.796Z,78.02
2022-09-14T02:21:12.423Z,78.42
2022-09-14T02:22:11.797Z,77.92
2022-09-14T02:23:11.880Z,78.83
2022-09-14T02:24:11.774Z,78.22
2022-09-14T02:25:11.785Z,77.51
2022-09-14T02:26:11.735Z,78.53
2022-09-14T02:27:11.743Z,78.83
2022-09-14T02:28:11.729Z,78.56
2022-09-14T02:29:11.750Z,78.26
2022-09-14T02:30:11.690Z,78.36
2022-09-14T02:31:11.874Z,78.73
2022-09-14T02:32:11.697Z,77.82
2022-09-14T02:33:11.721Z,77.92
2022-09-14T02:34:11.687Z,77.41
2022-09-14T02:35:11.646Z,78.22
2022-09-14T02:36:11.688Z,78.53
2022-09-14T02:37:11.639Z,78.73
2022-09-14T02:38:11.657Z,77.51
2022-09-14T02:39:11.647Z,77.04
2022-09-14T02:40:11.717Z,78.33
2022-09-14T02:41:11.653Z,78.66
2022-09-14T02:42:11.644Z,78.46
2022-09-14T02:43:11.567Z,76.84
2022-09-14T02:44:11.561Z,76.54
2022-09-14T02:45:11.537Z,77.65
2022-09-14T02:46:11.610Z,77.34
2022-09-14T02:47:11.528Z,77.25
2022-09-14T02:48:11.509Z,76.33
2022-09-14T02:49:11.519Z,76.84
2022-09-14T02:50:11.488Z,76.54
2022-09-14T02:51:11.510Z,77.75
2022-09-14T02:52:11.481Z,77.45
2022-09-14T02:53:11.460Z,77.14
2022-09-14T02:54:11.577Z,75.82
2022-09-14T02:55:11.448Z,75.42
2022-09-14T02:56:11.425Z,76.43
2022-09-14T02:57:11.400Z,76.20
2022-09-14T02:58:11.389Z,75.73
2022-09-14T02:59:11.473Z,76.84
2022-09-14T03:00:11.364Z,76.23
2022-09-14T03:01:11.548Z,76.43
2022-09-14T03:02:17.414Z,75.82
2022-09-14T03:03:11.387Z,75.62
2022-09-14T03:04:11.336Z,76.23
2022-09-14T03:05:11.529Z,77.04
2022-09-14T03:06:11.320Z,76.54
2022-09-14T03:07:11.328Z,76.33
2022-09-14T03:08:11.306Z,77.34
2022-09-14T03:09:11.296Z,78.26
2022-09-14T03:10:11.258Z,77.04
2022-09-14T03:11:11.259Z,76.84
2022-09-14T03:12:11.233Z,77.45
2022-09-14T03:13:11.311Z,77.25
2022-09-14T03:14:11.270Z,77.34
2022-09-14T03:15:11.209Z,77.95
2022-09-14T03:16:11.280Z,78.66
2022-09-14T03:17:11.186Z,78.16
2022-09-14T03:18:14.255Z,77.95
2022-09-14T03:19:11.191Z,78.09
2022-09-14T03:20:11.145Z,78.91
2022-09-14T03:21:11.194Z,78.91
2022-09-14T03:22:11.122Z,77.89
2022-09-14T03:23:11.122Z,77.69
2022-09-14T03:24:11.135Z,77.99
2022-09-14T03:25:11.103Z,78.60
2022-09-14T03:26:11.117Z,78.19
2022-09-14T03:27:11.074Z,78.70
2022-09-14T03:28:11.075Z,78.80
2022-09-14T03:29:11.089Z,79.21
2022-09-14T03:30:11.074Z,79.00
2022-09-14T03:31:11.233Z,78.70
2022-09-14T03:32:11.017Z,78.70
2022-09-14T03:33:11.016Z,78.80
2022-09-14T03:34:11.034Z,78.40
2022-09-14T03:35:10.999Z,78.91
2022-09-14T03:36:11.009Z,79.11
2022-09-14T03:37:10.993Z,78.40
2022-09-14T03:38:10.967Z,79.21
2022-09-14T03:39:10.988Z,78.74
2022-09-14T03:40:10.998Z,79.92
2022-09-14T03:41:10.929Z,79.35
2022-09-14T03:42:10.927Z,79.25
2022-09-14T03:43:10.911Z,79.45
2022-09-14T03:44:10.911Z,78.94
2022-09-14T03:45:10.931Z,78.94
2022-09-14T03:46:10.968Z,79.25
2022-09-14T03:47:10.869Z,79.35
2022-09-14T03:48:10.846Z,79.35
2022-09-14T03:49:10.835Z,79.14
2022-09-14T03:50:10.848Z,78.74
2022-09-14T03:51:10.822Z,79.35
2022-09-14T03:52:10.815Z,79.96
2022-09-14T03:53:10.790Z,79.14
2022-09-14T03:54:10.803Z,79.14
2022-09-14T03:55:10.887Z,78.44
2022-09-14T03:56:10.778Z,79.14
2022-09-14T03:57:10.761Z,79.04
2022-09-14T03:58:10.754Z,78.64
2022-09-14T03:59:10.734Z,79.45
2022-09-14T04:00:10.724Z,78.84
2022-09-14T04:01:10.725Z,79.04
2022-09-14T04:02:10.796Z,79.35
2022-09-14T04:03:10.753Z,79.25
2022-09-14T04:04:10.689Z,78.94
2022-09-14T04:05:10.674Z,79.75
2022-09-14T04:06:10.684Z,79.45
2022-09-14T04:07:10.663Z,79.45
2022-09-14T04:08:10.648Z,79.65
2022-09-14T04:09:10.623Z,80.77
2022-09-14T04:10:10.644Z,80.57
2022-09-14T04:11:10.660Z,79.65
2022-09-14T04:12:10.608Z,79.55
2022-09-14T04:13:10.581Z,79.55
2022-09-14T04:14:10.577Z,79.55
2022-09-14T04:15:10.558Z,79.04
2022-09-14T04:16:10.682Z,79.96
2022-09-14T04:17:10.547Z,79.85
2022-09-14T04:18:10.545Z,80.16
2022-09-14T04:19:10.528Z,79.45
2022-09-14T04:20:10.510Z,79.65
2022-09-14T04:21:10.500Z,78.94
2022-09-14T04:22:10.503Z,78.94
2022-09-14T04:23:10.479Z,79.35
2022-09-14T04:24:15.139Z,79.55
2022-09-14T04:25:10.500Z,80.06
2022-09-14T04:26:10.453Z,79.65
2022-09-14T04:27:10.439Z,80.46
2022-09-14T04:28:20.205Z,80.16
2022-09-14T04:29:10.438Z,79.85
2022-09-14T04:30:10.414Z,79.99
2022-09-14T04:31:10.489Z,78.98
2022-09-14T04:32:10.394Z,79.18
2022-09-14T04:33:10.378Z,79.49
2022-09-14T04:34:10.380Z,80.30
2022-09-14T04:35:10.495Z,81.41
2022-09-14T04:36:10.338Z,80.60
2022-09-14T04:37:10.351Z,79.99
2022-09-14T04:38:10.343Z,81.31
2022-09-14T04:39:10.334Z,80.71
2022-09-14T04:40:10.384Z,81.31
2022-09-14T04:41:10.242Z,81.72
2022-09-14T04:42:10.296Z,81.92
2022-09-14T04:43:10.281Z,81.01
2022-09-14T04:44:10.274Z,80.30
2022-09-14T04:45:10.280Z,81.41
2022-09-14T04:46:10.282Z,80.40
2022-09-14T04:47:10.230Z,80.50
2022-09-14T04:48:10.204Z,80.30
2022-09-14T04:49:10.233Z,80.30
2022-09-14T04:50:10.149Z,80.60
2022-09-14T04:51:10.119Z,80.19
2022-09-14T04:52:10.116Z,79.90
2022-09-14T04:53:10.099Z,80.40
2022-09-14T04:54:10.123Z,80.60
2022-09-14T04:55:10.381Z,80.40
2022-09-14T04:56:10.071Z,79.49
2022-09-14T04:57:10.052Z,79.90
2022-09-14T04:58:10.053Z,79.99
2022-09-14T04:59:10.090Z,79.90
2022-09-14T05:00:10.043Z,80.60
2022-09-14T05:01:10.026Z,79.99
2022-09-14T05:02:10.201Z,80.19
2022-09-14T05:03:10.096Z,80.30
2022-09-14T05:04:10.024Z,80.24
2022-09-14T05:05:10.049Z,79.83
2022-09-14T05:06:09.967Z,79.52
2022-09-14T05:07:09.967Z,80.84
2022-09-14T05:08:09.952Z,80.24
2022-09-14T05:09:09.934Z,79.93
2022-09-14T05:10:09.936Z,80.74
2022-09-14T05:11:09.906Z,79.83
2022-09-14T05:12:09.893Z,80.74
2022-09-14T05:13:09.922Z,81.56
2022-09-14T05:14:09.885Z,81.66
2022-09-14T05:15:09.859Z,81.15
2022-09-14T05:16:09.913Z,81.45
2022-09-14T05:17:09.831Z,81.05
2022-09-14T05:18:09.845Z,80.64
2022-09-14T05:19:09.840Z,81.15
2022-09-14T05:20:09.818Z,81.86
2022-09-14T05:21:09.903Z,81.59
2022-09-14T05:22:09.799Z,81.05
2022-09-14T05:23:09.786Z,82.57
2022-09-14T05:24:09.785Z,81.25
2022-09-14T05:25:09.788Z,83.18
2022-09-14T05:26:09.760Z,81.96
2022-09-14T05:27:09.759Z,82.57
2022-09-14T05:28:09.742Z,81.96
2022-09-14T05:29:09.727Z,82.67
2022-09-14T05:30:09.736Z,83.79
2022-09-14T05:31:09.818Z,84.80
2022-09-14T05:32:09.682Z,85.46
2022-09-14T05:33:09.692Z,85.05
2022-09-14T05:34:09.724Z,86.16
2022-09-14T05:35:09.653Z,87.08
2022-09-14T05:36:09.667Z,87.49
2022-09-14T05:37:09.692Z,89.01
2022-09-14T05:38:09.718Z,88.81
2022-09-14T05:39:09.725Z,89.31
2022-09-14T05:40:09.694Z,90.03
2022-09-14T05:41:09.585Z,90.13
2022-09-14T05:42:09.586Z,90.53
2022-09-14T05:43:09.569Z,90.64
2022-09-14T05:44:09.560Z,90.84
2022-09-14T05:45:09.567Z,91.49
2022-09-14T05:46:09.591Z,91.49
2022-09-14T05:47:09.529Z,92.00
2022-09-14T05:48:09.519Z,92.30
2022-09-14T05:49:09.502Z,92.61
2022-09-14T05:50:09.533Z,92.51
2022-09-14T05:51:09.499Z,92.91
2022-09-14T05:52:09.489Z,93.22
2022-09-14T05:53:09.639Z,93.43
2022-09-14T05:54:09.545Z,93.38
2022-09-14T05:55:09.478Z,90.07
2022-09-14T05:56:09.472Z,91.96
2022-09-14T05:57:09.437Z,90.53
2022-09-14T05:58:09.410Z,89.72
2022-09-14T05:59:09.406Z,92.26
2022-09-14T06:00:09.438Z,91.86
2022-09-14T06:01:09.561Z,93.59
2022-09-14T06:02:09.485Z,93.59
2022-09-14T06:03:09.378Z,93.38
2022-09-14T06:04:09.393Z,93.79
2022-09-14T06:05:09.381Z,92.87
2022-09-14T06:06:09.358Z,93.18
2022-09-14T06:07:18.579Z,93.68
2022-09-14T06:08:09.458Z,94.20
2022-09-14T06:09:09.317Z,94.64
2022-09-14T06:10:09.306Z,94.70
2022-09-14T06:11:09.362Z,95.10
2022-09-14T06:12:09.340Z,95.01
2022-09-14T06:13:09.303Z,95.01
2022-09-14T06:14:09.326Z,95.92
2022-09-14T06:15:09.321Z,95.15
2022-09-14T06:16:09.314Z,95.05
2022-09-14T06:17:09.272Z,94.74
2022-09-14T06:18:09.259Z,95.15
2022-09-14T06:19:09.223Z,94.95
2022-09-14T06:20:09.291Z,95.66
2022-09-14T06:21:09.220Z,95.76
2022-09-14T06:22:09.172Z,95.05
2022-09-14T06:23:09.247Z,95.56
2022-09-14T06:24:09.200Z,94.95
2022-09-14T06:25:09.119Z,94.85
2022-09-14T06:26:09.197Z,95.56
2022-09-14T06:27:09.111Z,95.97
2022-09-14T06:28:09.095Z,96.27
2022-09-14T06:29:09.090Z,95.05
2022-09-14T06:30:09.078Z,94.85
2022-09-14T06:31:09.240Z,95.15
2022-09-14T06:32:09.207Z,95.76
2022-09-14T06:33:09.054Z,95.56
2022-09-14T06:34:09.050Z,95.56
2022-09-14T06:35:12.307Z,96.07
2022-09-14T06:36:14.143Z,96.58
2022-09-14T06:37:09.189Z,96.07
2022-09-14T06:38:09.003Z,96.58
2022-09-14T06:39:08.970Z,96.47
2022-09-14T06:40:09.018Z,96.58
2022-09-14T06:41:08.989Z,95.97
2022-09-14T06:42:09.109Z,96.17
2022-09-14T06:43:08.946Z,96.37
2022-09-14T06:44:08.964Z,97.08
2022-09-14T06:45:08.910Z,96.98
2022-09-14T06:46:08.939Z,96.37
2022-09-14T06:47:08.929Z,95.97
2022-09-14T06:48:08.873Z,95.97
2022-09-14T06:49:08.864Z,95.86
2022-09-14T06:50:08.875Z,96.37
2022-09-14T06:51:08.863Z,95.76
2022-09-14T06:52:08.862Z,95.97
2022-09-14T06:53:08.812Z,96.07
2022-09-14T06:54:08.860Z,96.07
2022-09-14T06:55:08.847Z,96.88
2022-09-14T06:56:08.802Z,96.37
2022-09-14T06:57:08.897Z,96.68
2022-09-14T06:58:08.794Z,97.39
2022-09-14T06:59:08.815Z,97.29
2022-09-14T07:00:08.791Z,96.78
2022-09-14T07:01:08.753Z,97.08
2022-09-14T07:02:08.861Z,96.07
2022-09-14T07:03:08.793Z,95.76
2022-09-14T07:04:08.863Z,95.76
2022-09-14T07:05:08.697Z,95.51
2022-09-14T07:06:08.726Z,96.02
2022-09-14T07:07:08.687Z,96.43
2022-09-14T07:08:12.095Z,97.04
2022-09-14T07:09:08.651Z,97.34
2022-09-14T07:10:08.769Z,96.43
2022-09-14T07:11:08.675Z,96.12
2022-09-14T07:12:08.792Z,95.92
2022-09-14T07:13:08.654Z,96.33
2022-09-14T07:14:08.678Z,95.26
2022-09-14T07:15:08.663Z,95.98
2022-09-14T07:16:08.638Z,97.09
2022-09-14T07:17:08.578Z,97.60
2022-09-14T07:18:08.571Z,96.69
2022-09-14T07:19:08.557Z,96.28
2022-09-14T07:20:08.538Z,95.37
2022-09-14T07:21:08.532Z,94.86
2022-09-14T07:22:08.541Z,94.35
2022-09-14T07:23:08.564Z,94.56
2022-09-14T07:24:08.502Z,95.47
2022-09-14T07:25:08.493Z,96.59
2022-09-14T07:26:08.553Z,97.09
2022-09-14T07:27:08.493Z,95.98
2022-09-14T07:28:08.460Z,94.45
2022-09-14T07:29:08.440Z,93.84
2022-09-14T07:30:08.459Z,94.56
2022-09-14T07:31:08.443Z,95.83
2022-09-14T07:32:08.428Z,96.54
2022-09-14T07:33:08.583Z,96.54
2022-09-14T07:34:08.408Z,96.14
2022-09-14T07:35:08.376Z,94.61
2022-09-14T07:36:08.411Z,94.82
2022-09-14T07:37:08.405Z,95.83
2022-09-14T07:38:08.358Z,95.02
2022-09-14T07:39:08.338Z,96.54
2022-09-14T07:40:08.438Z,96.75
2022-09-14T07:41:08.568Z,96.64
2022-09-14T07:42:08.320Z,95.83
2022-09-14T07:43:08.312Z,96.34
2022-09-14T07:44:08.298Z,95.94
2022-09-14T07:45:08.283Z,95.73
2022-09-14T07:46:08.368Z,95.94
2022-09-14T07:47:08.330Z,95.73
2022-09-14T07:48:08.284Z,92.58
2022-09-14T07:49:08.272Z,92.84
2022-09-14T07:50:08.303Z,93.55
2022-09-14T07:51:08.216Z,94.17
2022-09-14T07:52:08.344Z,93.35
2022-09-14T07:53:08.190Z,93.05
2022-09-14T07:54:08.604Z,93.05
2022-09-14T07:55:08.186Z,93.05
2022-09-14T07:56:08.152Z,93.96
2022-09-14T07:57:08.172Z,94.06
2022-09-14T07:58:08.136Z,93.65
2022-09-14T07:59:37.755Z,93.55
2022-09-14T08:00:08.121Z,93.65
2022-09-14T08:01:08.179Z,94.57
2022-09-14T08:02:08.160Z,92.54
2022-09-14T08:03:08.096Z,92.64
2022-09-14T08:04:08.088Z,93.05
2022-09-14T08:05:08.088Z,93.05
2022-09-14T08:06:08.051Z,94.87
2022-09-14T08:07:08.043Z,93.96
2022-09-14T08:08:08.026Z,93.65
2022-09-14T08:09:08.026Z,92.64
2022-09-14T08:10:08.009Z,92.84
2022-09-14T08:11:07.997Z,93.35
2022-09-14T08:12:07.974Z,92.84
2022-09-14T08:13:07.980Z,92.94
2022-09-14T08:14:07.966Z,92.94
2022-09-14T08:15:07.951Z,93.05
2022-09-14T08:16:07.979Z,93.35
2022-09-14T08:17:07.937Z,93.86
2022-09-14T08:18:07.964Z,94.37
2022-09-14T08:19:07.922Z,94.46
2022-09-14T08:20:07.897Z,93.86
2022-09-14T08:21:07.924Z,93.25
2022-09-14T08:22:07.872Z,94.17
2022-09-14T08:23:07.908Z,93.76
2022-09-14T08:24:07.901Z,94.57
2022-09-14T08:25:07.852Z,94.57
2022-09-14T08:26:07.842Z,93.35
2022-09-14T08:27:07.847Z,93.45
2022-09-14T08:28:07.816Z,93.71
2022-09-14T08:29:07.850Z,94.93
2022-09-14T08:30:07.780Z,95.03
2022-09-14T08:31:07.787Z,93.81
2022-09-14T08:32:08.117Z,93.81
2022-09-14T08:33:07.794Z,94.32
2022-09-14T08:34:07.758Z,94.53
2022-09-14T08:35:07.828Z,94.12
2022-09-14T08:36:07.719Z,94.12
2022-09-14T08:37:07.724Z,93.81
2022-09-14T08:38:07.699Z,95.29
2022-09-14T08:39:07.819Z,94.48
2022-09-14T08:40:07.732Z,92.80
2022-09-14T08:41:07.675Z,93.37
2022-09-14T08:42:07.661Z,93.67
2022-09-14T08:43:07.647Z,93.57
2022-09-14T08:44:07.676Z,93.57
2022-09-14T08:45:09.869Z,94.38
2022-09-14T08:46:07.682Z,93.67
2022-09-14T08:47:07.708Z,94.48
2022-09-14T08:48:07.590Z,91.44
2022-09-14T08:49:07.615Z,93.06
2022-09-14T08:50:07.564Z,91.64
2022-09-14T08:51:07.583Z,91.74
2022-09-14T08:52:07.574Z,93.97
2022-09-14T08:53:07.556Z,94.78
2022-09-14T08:54:07.525Z,94.89
2022-09-14T08:55:07.696Z,92.45
2022-09-14T08:56:07.512Z,92.96
2022-09-14T08:57:07.504Z,93.87
2022-09-14T08:58:07.488Z,93.77
2022-09-14T08:59:07.483Z,91.74
2022-09-14T09:00:07.467Z,91.54
2022-09-14T09:01:07.603Z,92.25
2022-09-14T09:02:07.473Z,91.85
2022-09-14T09:03:07.513Z,92.14
2022-09-14T09:04:07.512Z,91.44
2022-09-14T09:05:07.429Z,91.34
2022-09-14T09:06:07.408Z,90.93
2022-09-14T09:07:07.415Z,90.73
2022-09-14T09:08:07.386Z,92.05
2022-09-14T09:09:07.391Z,92.65
2022-09-14T09:10:07.445Z,91.64
2022-09-14T09:11:07.358Z,91.64
2022-09-14T09:12:07.356Z,92.25
2022-09-14T09:13:07.401Z,93.06
2022-09-14T09:14:07.312Z,94.18
2022-09-14T09:15:07.452Z,92.25
2022-09-14T09:16:07.707Z,90.73
2022-09-14T09:17:07.328Z,89.72
2022-09-14T09:18:07.267Z,90.32
2022-09-14T09:19:07.316Z,90.02
2022-09-14T09:20:07.246Z,89.98
2022-09-14T09:21:07.341Z,91.09
2022-09-14T09:22:07.235Z,89.98
2022-09-14T09:23:07.221Z,90.89
2022-09-14T09:24:07.207Z,92.31
2022-09-14T09:25:07.221Z,93.83
2022-09-14T09:26:07.301Z,92.91
2022-09-14T09:27:07.227Z,89.26
2022-09-14T09:28:07.198Z,89.47
2022-09-14T09:29:07.174Z,90.03
2022-09-14T09:30:07.282Z,89.06
2022-09-14T09:31:11.487Z,89.67
2022-09-14T09:32:07.888Z,89.57
2022-09-14T09:33:14.045Z,92.00
2022-09-14T09:34:08.884Z,88.86
2022-09-14T09:35:09.538Z,91.66
2022-09-14T09:36:07.591Z,92.57
2022-09-14T09:37:07.303Z,91.05
2022-09-14T09:38:08.089Z,88.96
2022-09-14T09:39:07.052Z,89.67
2022-09-14T09:40:07.078Z,89.37
2022-09-14T09:41:13.531Z,90.79
2022-09-14T09:42:07.025Z,90.08
2022-09-14T09:43:07.031Z,90.69
2022-09-14T09:44:06.984Z,89.57
2022-09-14T09:45:06.991Z,91.09
2022-09-14T09:46:07.041Z,90.93
2022-09-14T09:47:07.039Z,92.14
2022-09-14T09:48:06.954Z,91.64
2022-09-14T09:49:06.949Z,91.85
2022-09-14T09:50:06.978Z,91.85
2022-09-14T09:51:06.931Z,92.45
2022-09-14T09:52:06.903Z,92.65
2022-09-14T09:53:07.004Z,92.61
2022-09-14T09:54:06.893Z,90.83
2022-09-14T09:55:06.888Z,89.92
2022-09-14T09:56:06.852Z,90.48
2022-09-14T09:57:06.898Z,90.08
2022-09-14T09:58:06.834Z,89.57
2022-09-14T09:59:06.844Z,90.08
2022-09-14T10:00:06.906Z,90.08
2022-09-14T10:01:12.095Z,89.47
2022-09-14T10:02:06.854Z,90.18
2022-09-14T10:03:06.800Z,90.89
2022-09-14T10:04:06.842Z,90.28
2022-09-14T10:05:06.772Z,90.69
2022-09-14T10:06:06.865Z,89.17
2022-09-14T10:07:06.760Z,90.58
2022-09-14T10:08:11.267Z,89.77
2022-09-14T10:09:06.725Z,89.37
2022-09-14T10:10:06.928Z,89.57
2022-09-14T10:11:06.709Z,91.50
2022-09-14T10:12:06.675Z,91.60
2022-09-14T10:13:06.695Z,88.56
2022-09-14T10:14:06.670Z,88.86
2022-09-14T10:15:06.711Z,88.05
2022-09-14T10:16:06.710Z,89.57
2022-09-14T10:17:06.690Z,89.26
2022-09-14T10:18:06.623Z,89.37
2022-09-14T10:19:06.630Z,90.69
2022-09-14T10:20:06.875Z,90.48
2022-09-14T10:21:06.605Z,91.60
2022-09-14T10:22:06.653Z,89.26
2022-09-14T10:23:06.575Z,90.28
2022-09-14T10:24:06.581Z,90.79
2022-09-14T10:25:06.667Z,90.18
2022-09-14T10:26:06.566Z,89.06
2022-09-14T10:27:06.563Z,90.44
2022-09-14T10:28:06.505Z,90.54
2022-09-14T10:29:06.562Z,90.99
2022-09-14T10:30:06.584Z,91.19
2022-09-14T10:31:06.574Z,91.46
2022-09-14T10:32:06.478Z,90.34
2022-09-14T10:33:06.475Z,90.58
2022-09-14T10:34:06.471Z,91.75
2022-09-14T10:35:06.454Z,91.75
2022-09-14T10:36:06.433Z,91.66
2022-09-14T10:37:06.509Z,91.15
2022-09-14T10:38:06.407Z,90.75
2022-09-14T10:39:06.404Z,89.32
2022-09-14T10:40:06.436Z,89.63
2022-09-14T10:41:06.391Z,91.25
2022-09-14T10:42:06.408Z,92.57
2022-09-14T10:43:06.378Z,91.75
2022-09-14T10:44:06.347Z,89.94
2022-09-14T10:45:06.371Z,89.63
2022-09-14T10:46:06.432Z,89.63
2022-09-14T10:47:06.331Z,90.14
2022-09-14T10:48:06.361Z,89.43
2022-09-14T10:49:06.389Z,89.83
2022-09-14T10:50:06.282Z,89.63
2022-09-14T10:51:06.326Z,89.94
2022-09-14T10:52:06.269Z,92.26
2022-09-14T10:53:06.251Z,90.84
2022-09-14T10:54:06.234Z,91.46
2022-09-14T10:55:06.238Z,90.64
2022-09-14T10:56:06.222Z,90.80
2022-09-14T10:57:06.224Z,90.80
2022-09-14T10:58:06.191Z,91.11
2022-09-14T10:59:06.186Z,90.30
2022-09-14T11:00:06.174Z,89.99
2022-09-14T11:01:06.174Z,88.57
2022-09-14T11:02:06.248Z,88.98
2022-09-14T11:03:06.209Z,87.97
2022-09-14T11:04:06.125Z,87.36
2022-09-14T11:05:06.262Z,89.48
2022-09-14T11:06:06.115Z,88.68
2022-09-14T11:07:06.140Z,91.11
2022-09-14T11:08:06.119Z,90.09
2022-09-14T11:09:06.080Z,89.89
2022-09-14T11:10:06.059Z,89.89
2022-09-14T11:11:09.426Z,89.28
2022-09-14T11:12:06.070Z,90.50
2022-09-14T11:13:06.065Z,90.50
2022-09-14T11:14:06.071Z,90.80
2022-09-14T11:15:06.015Z,89.08
2022-09-14T11:16:06.079Z,89.08
2022-09-14T11:17:06.005Z,90.70
2022-09-14T11:18:05.976Z,85.44
2022-09-14T11:19:05.991Z,86.05
2022-09-14T11:20:06.655Z,86.55
2022-09-14T11:21:05.957Z,87.46
2022-09-14T11:22:05.946Z,88.37
2022-09-14T11:23:05.966Z,86.65
2022-09-14T11:24:05.914Z,86.45
2022-09-14T11:25:05.983Z,87.30
2022-09-14T11:26:05.981Z,88.57
2022-09-14T11:27:05.977Z,90.50
2022-09-14T11:28:05.880Z,89.28
2022-09-14T11:29:05.908Z,88.48
2022-09-14T11:30:05.858Z,87.56
2022-09-14T11:31:05.928Z,87.56
2022-09-14T11:32:20.299Z,88.88
2022-09-14T11:33:05.885Z,87.87
2022-09-14T11:34:05.845Z,87.77
2022-09-14T11:35:05.927Z,87.46
2022-09-14T11:36:05.790Z,85.99
2022-09-14T11:37:05.803Z,86.96
2022-09-14T11:38:05.852Z,89.18
2022-09-14T11:39:07.043Z,89.18
2022-09-14T11:40:05.847Z,88.48
2022-09-14T11:41:05.729Z,89.79
2022-09-14T11:42:05.728Z,88.27
2022-09-14T11:43:05.707Z,89.08
2022-09-14T11:44:05.788Z,88.68
2022-09-14T11:45:05.716Z,89.18
2022-09-14T11:46:05.755Z,89.08
2022-09-14T11:47:05.707Z,91.31
2022-09-14T11:48:12.430Z,87.87
2022-09-14T11:49:05.680Z,85.74
2022-09-14T11:50:05.662Z,87.62
2022-09-14T11:51:05.632Z,87.32
2022-09-14T11:52:05.603Z,89.54
2022-09-14T11:53:05.594Z,88.94
2022-09-14T11:54:05.596Z,86.41
2022-09-14T11:55:05.605Z,84.99
2022-09-14T11:56:05.579Z,85.80
2022-09-14T11:57:05.601Z,85.60
2022-09-14T11:58:05.555Z,86.85
2022-09-14T11:59:05.560Z,85.54
2022-09-14T12:00:05.563Z,86.96
2022-09-14T12:01:05.540Z,86.25
2022-09-14T12:02:05.503Z,86.35
2022-09-14T12:03:05.640Z,88.57
2022-09-14T12:04:05.631Z,88.78
2022-09-14T12:05:05.538Z,88.68
2022-09-14T12:06:05.473Z,88.23
2022-09-14T12:07:05.459Z,85.84
2022-09-14T12:08:05.457Z,87.73
2022-09-14T12:09:05.542Z,86.85
2022-09-14T12:10:05.453Z,87.66
2022-09-14T12:11:05.393Z,87.77
2022-09-14T12:12:05.417Z,86.85
2022-09-14T12:13:05.419Z,87.87
2022-09-14T12:14:05.397Z,89.28
2022-09-14T12:15:05.515Z,89.89
2022-09-14T12:16:05.474Z,86.76
2022-09-14T12:17:17.609Z,86.25
2022-09-14T12:18:05.342Z,86.76
2022-09-14T12:19:05.317Z,86.55
2022-09-14T12:20:05.327Z,87.36
2022-09-14T12:21:05.327Z,86.85
2022-09-14T12:22:05.296Z,86.91
2022-09-14T12:23:05.276Z,86.10
2022-09-14T12:24:05.271Z,86.71
2022-09-14T12:25:05.423Z,85.30
2022-09-14T12:26:05.291Z,85.84
2022-09-14T12:27:05.222Z,86.65
2022-09-14T12:28:05.240Z,87.12
2022-09-14T12:29:05.222Z,86.71
2022-09-14T12:30:05.204Z,89.04
2022-09-14T12:31:05.419Z,87.82
2022-09-14T12:32:05.200Z,88.13
2022-09-14T12:33:05.167Z,90.45
2022-09-14T12:34:05.168Z,87.99
2022-09-14T12:35:05.155Z,86.10
2022-09-14T12:36:05.152Z,86.10
2022-09-14T12:37:09.926Z,87.02
2022-09-14T12:38:05.125Z,86.00
2022-09-14T12:39:05.160Z,86.41
2022-09-14T12:40:05.157Z,86.71
2022-09-14T12:41:05.076Z,86.00
2022-09-14T12:42:05.093Z,87.52
2022-09-14T12:43:05.087Z,87.82
2022-09-14T12:44:05.057Z,85.30
2022-09-14T12:45:05.110Z,85.90
2022-09-14T12:46:05.078Z,86.41
2022-09-14T12:47:05.045Z,85.60
2022-09-14T12:48:05.023Z,87.62
2022-09-14T12:49:04.994Z,87.62
2022-09-14T12:50:05.008Z,87.62
2022-09-14T12:51:04.971Z,86.51
2022-09-14T12:52:04.995Z,87.32